sensor_id;sensor_type;location;lat;lon;timestamp;P1;durP1;ratioP1;P2;durP2;ratioP2
75971;SDS011;64651;47.540;19.088;2024-01-11T00:01:56;25.33;;;17.25;;
75971;SDS011;64651;47.540;19.088;2024-01-11T00:06:58;26.45;;;17.87;;
75971;SDS011;64651;47.540;19.088;2024-01-11T00:12:01;24.30;;;16.80;;
75971;SDS011;64651;47.540;19.088;2024-01-11T00:17:03;25.60;;;17.62;;
75971;SDS011;64651;47.540;19.088;2024-01-11T00:22:05;23.50;;;16.15;;
75971;SDS011;64651;47.540;19.088;2024-01-11T00:27:07;23.90;;;17.73;;
75971;SDS011;64651;47.540;19.088;2024-01-11T00:32:10;25.33;;;17.62;;
75971;SDS011;64651;47.540;19.088;2024-01-11T00:37:12;25.90;;;18.23;;
75971;SDS011;64651;47.540;19.088;2024-01-11T00:42:15;26.95;;;18.75;;
75971;SDS011;64651;47.540;19.088;2024-01-11T00:47:17;27.02;;;19.92;;
75971;SDS011;64651;47.540;19.088;2024-01-11T00:52:19;26.52;;;18.40;;
75971;SDS011;64651;47.540;19.088;2024-01-11T00:57:21;27.58;;;19.23;;
75971;SDS011;64651;47.540;19.088;2024-01-11T01:02:23;29.10;;;20.73;;
75971;SDS011;64651;47.540;19.088;2024-01-11T01:07:26;28.25;;;19.62;;
75971;SDS011;64651;47.540;19.088;2024-01-11T01:12:28;27.27;;;19.48;;
75971;SDS011;64651;47.540;19.088;2024-01-11T01:17:30;26.87;;;19.65;;
75971;SDS011;64651;47.540;19.088;2024-01-11T01:22:32;27.58;;;19.25;;
75971;SDS011;64651;47.540;19.088;2024-01-11T01:27:34;29.23;;;20.70;;
75971;SDS011;64651;47.540;19.088;2024-01-11T01:32:37;28.15;;;20.25;;
75971;SDS011;64651;47.540;19.088;2024-01-11T01:37:39;28.45;;;19.35;;
75971;SDS011;64651;47.540;19.088;2024-01-11T01:42:44;27.25;;;19.87;;
75971;SDS011;64651;47.540;19.088;2024-01-11T01:47:47;29.80;;;20.37;;
75971;SDS011;64651;47.540;19.088;2024-01-11T01:52:49;27.67;;;19.87;;
75971;SDS011;64651;47.540;19.088;2024-01-11T01:57:53;29.08;;;20.50;;
75971;SDS011;64651;47.540;19.088;2024-01-11T02:02:56;29.17;;;21.05;;
75971;SDS011;64651;47.540;19.088;2024-01-11T02:08:00;26.60;;;20.02;;
75971;SDS011;64651;47.540;19.088;2024-01-11T02:13:05;28.62;;;20.25;;
75971;SDS011;64651;47.540;19.088;2024-01-11T02:18:11;28.40;;;18.57;;
75971;SDS011;64651;47.540;19.088;2024-01-11T02:23:17;27.55;;;19.60;;
75971;SDS011;64651;47.540;19.088;2024-01-11T02:28:23;31.58;;;22.23;;
75971;SDS011;64651;47.540;19.088;2024-01-11T02:33:25;29.33;;;22.15;;
75971;SDS011;64651;47.540;19.088;2024-01-11T02:38:27;33.63;;;23.25;;
75971;SDS011;64651;47.540;19.088;2024-01-11T02:43:30;32.77;;;22.73;;
75971;SDS011;64651;47.540;19.088;2024-01-11T02:48:32;31.33;;;22.27;;
75971;SDS011;64651;47.540;19.088;2024-01-11T02:53:35;32.20;;;21.90;;
75971;SDS011;64651;47.540;19.088;2024-01-11T02:58:37;32.63;;;22.58;;
75971;SDS011;64651;47.540;19.088;2024-01-11T03:03:39;31.87;;;22.80;;
75971;SDS011;64651;47.540;19.088;2024-01-11T03:08:41;30.00;;;22.07;;
75971;SDS011;64651;47.540;19.088;2024-01-11T03:13:43;33.03;;;23.10;;
75971;SDS011;64651;47.540;19.088;2024-01-11T03:18:46;33.78;;;23.58;;
75971;SDS011;64651;47.540;19.088;2024-01-11T03:23:48;31.42;;;22.73;;
75971;SDS011;64651;47.540;19.088;2024-01-11T03:28:50;33.85;;;24.40;;
75971;SDS011;64651;47.540;19.088;2024-01-11T03:33:52;36.43;;;25.33;;
75971;SDS011;64651;47.540;19.088;2024-01-11T03:38:55;37.78;;;26.33;;
75971;SDS011;64651;47.540;19.088;2024-01-11T03:43:57;36.17;;;25.02;;
75971;SDS011;64651;47.540;19.088;2024-01-11T03:49:00;37.25;;;26.60;;
75971;SDS011;64651;47.540;19.088;2024-01-11T03:54:02;37.83;;;26.52;;
75971;SDS011;64651;47.540;19.088;2024-01-11T03:59:05;38.60;;;27.47;;
75971;SDS011;64651;47.540;19.088;2024-01-11T04:04:10;39.92;;;28.42;;
75971;SDS011;64651;47.540;19.088;2024-01-11T04:09:12;37.88;;;26.87;;
75971;SDS011;64651;47.540;19.088;2024-01-11T04:14:14;40.17;;;26.60;;
75971;SDS011;64651;47.540;19.088;2024-01-11T04:19:16;36.92;;;26.37;;
75971;SDS011;64651;47.540;19.088;2024-01-11T04:24:24;38.57;;;27.53;;
75971;SDS011;64651;47.540;19.088;2024-01-11T04:29:26;36.20;;;26.67;;
75971;SDS011;64651;47.540;19.088;2024-01-11T04:34:28;41.25;;;27.90;;
75971;SDS011;64651;47.540;19.088;2024-01-11T04:39:31;38.53;;;27.60;;
75971;SDS011;64651;47.540;19.088;2024-01-11T04:44:33;36.17;;;26.58;;
75971;SDS011;64651;47.540;19.088;2024-01-11T04:49:36;40.37;;;28.23;;
75971;SDS011;64651;47.540;19.088;2024-01-11T04:54:38;38.65;;;26.90;;
75971;SDS011;64651;47.540;19.088;2024-01-11T04:59:40;39.22;;;28.55;;
75971;SDS011;64651;47.540;19.088;2024-01-11T05:04:42;37.55;;;27.85;;
75971;SDS011;64651;47.540;19.088;2024-01-11T05:09:44;39.80;;;28.27;;
75971;SDS011;64651;47.540;19.088;2024-01-11T05:14:46;40.80;;;29.30;;
75971;SDS011;64651;47.540;19.088;2024-01-11T05:19:48;74.82;;;52.75;;
75971;SDS011;64651;47.540;19.088;2024-01-11T05:24:51;83.05;;;56.03;;
75971;SDS011;64651;47.540;19.088;2024-01-11T05:29:53;83.68;;;56.37;;
75971;SDS011;64651;47.540;19.088;2024-01-11T05:34:55;68.82;;;45.33;;
75971;SDS011;64651;47.540;19.088;2024-01-11T05:39:57;63.73;;;42.00;;
75971;SDS011;64651;47.540;19.088;2024-01-11T05:45:00;67.03;;;42.13;;
75971;SDS011;64651;47.540;19.088;2024-01-11T05:50:04;64.15;;;41.28;;
75971;SDS011;64651;47.540;19.088;2024-01-11T05:55:07;63.17;;;39.85;;
75971;SDS011;64651;47.540;19.088;2024-01-11T06:00:09;60.50;;;40.42;;
75971;SDS011;64651;47.540;19.088;2024-01-11T06:05:12;61.80;;;41.83;;
75971;SDS011;64651;47.540;19.088;2024-01-11T06:10:14;60.35;;;39.58;;
75971;SDS011;64651;47.540;19.088;2024-01-11T06:15:16;57.85;;;38.90;;
75971;SDS011;64651;47.540;19.088;2024-01-11T06:20:18;57.45;;;39.03;;
75971;SDS011;64651;47.540;19.088;2024-01-11T06:25:21;54.42;;;38.33;;
75971;SDS011;64651;47.540;19.088;2024-01-11T06:30:23;56.20;;;37.70;;
75971;SDS011;64651;47.540;19.088;2024-01-11T06:35:25;53.83;;;37.33;;
75971;SDS011;64651;47.540;19.088;2024-01-11T06:40:27;55.15;;;38.58;;
75971;SDS011;64651;47.540;19.088;2024-01-11T06:45:30;50.80;;;36.75;;
75971;SDS011;64651;47.540;19.088;2024-01-11T06:50:32;50.35;;;36.05;;
75971;SDS011;64651;47.540;19.088;2024-01-11T06:55:34;50.67;;;36.03;;
75971;SDS011;64651;47.540;19.088;2024-01-11T07:00:36;48.97;;;36.53;;
75971;SDS011;64651;47.540;19.088;2024-01-11T07:05:45;51.08;;;36.30;;
75971;SDS011;64651;47.540;19.088;2024-01-11T07:10:47;47.62;;;33.67;;
75971;SDS011;64651;47.540;19.088;2024-01-11T07:15:52;42.50;;;32.25;;
75971;SDS011;64651;47.540;19.088;2024-01-11T07:20:57;41.60;;;30.73;;
75971;SDS011;64651;47.540;19.088;2024-01-11T07:26:02;40.88;;;30.90;;
75971;SDS011;64651;47.540;19.088;2024-01-11T07:31:04;40.40;;;28.55;;
75971;SDS011;64651;47.540;19.088;2024-01-11T07:36:06;38.33;;;28.42;;
75971;SDS011;64651;47.540;19.088;2024-01-11T07:41:09;37.15;;;27.62;;
75971;SDS011;64651;47.540;19.088;2024-01-11T07:46:11;35.67;;;26.90;;
75971;SDS011;64651;47.540;19.088;2024-01-11T07:51:13;33.90;;;25.52;;
75971;SDS011;64651;47.540;19.088;2024-01-11T07:56:15;37.05;;;26.60;;
75971;SDS011;64651;47.540;19.088;2024-01-11T08:01:18;34.25;;;25.10;;
75971;SDS011;64651;47.540;19.088;2024-01-11T08:06:21;33.60;;;24.67;;
75971;SDS011;64651;47.540;19.088;2024-01-11T08:11:23;33.93;;;23.13;;
75971;SDS011;64651;47.540;19.088;2024-01-11T08:16:26;32.95;;;24.05;;
75971;SDS011;64651;47.540;19.088;2024-01-11T08:21:29;31.12;;;23.58;;
75971;SDS011;64651;47.540;19.088;2024-01-11T08:26:32;32.10;;;23.27;;
75971;SDS011;64651;47.540;19.088;2024-01-11T08:31:35;31.52;;;21.40;;
75971;SDS011;64651;47.540;19.088;2024-01-11T08:36:40;27.70;;;21.00;;
75971;SDS011;64651;47.540;19.088;2024-01-11T08:41:43;28.20;;;20.30;;
75971;SDS011;64651;47.540;19.088;2024-01-11T08:46:45;27.52;;;20.37;;
75971;SDS011;64651;47.540;19.088;2024-01-11T08:51:47;26.92;;;19.30;;
75971;SDS011;64651;47.540;19.088;2024-01-11T08:56:49;27.08;;;18.08;;
75971;SDS011;64651;47.540;19.088;2024-01-11T09:01:52;25.37;;;17.50;;
75971;SDS011;64651;47.540;19.088;2024-01-11T09:07:11;24.00;;;17.23;;
75971;SDS011;64651;47.540;19.088;2024-01-11T09:12:13;25.42;;;18.02;;
75971;SDS011;64651;47.540;19.088;2024-01-11T09:17:15;24.08;;;17.42;;
75971;SDS011;64651;47.540;19.088;2024-01-11T09:22:18;22.98;;;16.20;;
75971;SDS011;64651;47.540;19.088;2024-01-11T09:27:20;22.67;;;16.43;;
75971;SDS011;64651;47.540;19.088;2024-01-11T09:32:23;22.98;;;16.12;;
75971;SDS011;64651;47.540;19.088;2024-01-11T09:37:25;22.60;;;15.93;;
75971;SDS011;64651;47.540;19.088;2024-01-11T09:42:27;22.55;;;15.63;;
75971;SDS011;64651;47.540;19.088;2024-01-11T09:47:30;20.15;;;14.95;;
75971;SDS011;64651;47.540;19.088;2024-01-11T09:52:33;20.00;;;13.90;;
75971;SDS011;64651;47.540;19.088;2024-01-11T09:57:38;20.30;;;14.90;;
75971;SDS011;64651;47.540;19.088;2024-01-11T10:02:44;19.70;;;13.48;;
75971;SDS011;64651;47.540;19.088;2024-01-11T10:07:49;18.87;;;13.25;;
75971;SDS011;64651;47.540;19.088;2024-01-11T10:12:52;18.87;;;12.93;;
75971;SDS011;64651;47.540;19.088;2024-01-11T10:17:54;19.77;;;12.63;;
75971;SDS011;64651;47.540;19.088;2024-01-11T10:22:56;18.85;;;12.60;;
75971;SDS011;64651;47.540;19.088;2024-01-11T10:27:58;17.58;;;12.25;;
75971;SDS011;64651;47.540;19.088;2024-01-11T10:33:01;17.90;;;12.52;;
75971;SDS011;64651;47.540;19.088;2024-01-11T10:38:05;18.12;;;12.63;;
75971;SDS011;64651;47.540;19.088;2024-01-11T10:43:12;16.97;;;12.20;;
75971;SDS011;64651;47.540;19.088;2024-01-11T10:48:20;17.48;;;12.40;;
75971;SDS011;64651;47.540;19.088;2024-01-11T10:53:25;16.37;;;11.65;;
75971;SDS011;64651;47.540;19.088;2024-01-11T10:58:49;16.90;;;11.02;;
75971;SDS011;64651;47.540;19.088;2024-01-11T11:03:52;16.08;;;11.38;;
75971;SDS011;64651;47.540;19.088;2024-01-11T11:08:57;16.60;;;11.23;;
75971;SDS011;64651;47.540;19.088;2024-01-11T11:14:01;16.30;;;11.75;;
75971;SDS011;64651;47.540;19.088;2024-01-11T11:19:03;17.70;;;12.35;;
75971;SDS011;64651;47.540;19.088;2024-01-11T11:24:05;17.87;;;12.48;;
75971;SDS011;64651;47.540;19.088;2024-01-11T11:29:08;15.98;;;11.02;;
75971;SDS011;64651;47.540;19.088;2024-01-11T11:34:11;16.13;;;11.47;;
75971;SDS011;64651;47.540;19.088;2024-01-11T11:39:15;16.60;;;10.98;;
75971;SDS011;64651;47.540;19.088;2024-01-11T11:44:18;15.82;;;11.93;;
75971;SDS011;64651;47.540;19.088;2024-01-11T11:49:21;15.68;;;11.18;;
75971;SDS011;64651;47.540;19.088;2024-01-11T11:55:20;14.98;;;10.95;;
75971;SDS011;64651;47.540;19.088;2024-01-11T12:00:23;16.17;;;11.80;;
75971;SDS011;64651;47.540;19.088;2024-01-11T12:05:26;15.85;;;11.57;;
75971;SDS011;64651;47.540;19.088;2024-01-11T12:10:28;15.25;;;10.88;;
75971;SDS011;64651;47.540;19.088;2024-01-11T12:15:30;17.12;;;11.52;;
75971;SDS011;64651;47.540;19.088;2024-01-11T12:20:33;14.38;;;10.30;;
75971;SDS011;64651;47.540;19.088;2024-01-11T12:25:35;15.77;;;11.03;;
75971;SDS011;64651;47.540;19.088;2024-01-11T12:30:38;15.15;;;10.98;;
75971;SDS011;64651;47.540;19.088;2024-01-11T12:35:40;15.90;;;11.23;;
75971;SDS011;64651;47.540;19.088;2024-01-11T12:40:43;15.45;;;11.00;;
75971;SDS011;64651;47.540;19.088;2024-01-11T12:45:47;15.18;;;11.10;;
75971;SDS011;64651;47.540;19.088;2024-01-11T12:50:49;14.50;;;10.70;;
75971;SDS011;64651;47.540;19.088;2024-01-11T12:56:04;16.37;;;11.12;;
75971;SDS011;64651;47.540;19.088;2024-01-11T13:01:13;14.68;;;10.95;;
75971;SDS011;64651;47.540;19.088;2024-01-11T13:06:16;14.13;;;10.50;;
75971;SDS011;64651;47.540;19.088;2024-01-11T13:11:20;15.27;;;10.77;;
75971;SDS011;64651;47.540;19.088;2024-01-11T13:16:24;15.70;;;10.43;;
75971;SDS011;64651;47.540;19.088;2024-01-11T13:21:26;14.70;;;10.07;;
75971;SDS011;64651;47.540;19.088;2024-01-11T13:26:28;14.85;;;10.07;;
75971;SDS011;64651;47.540;19.088;2024-01-11T13:31:31;14.38;;;9.93;;
75971;SDS011;64651;47.540;19.088;2024-01-11T13:36:34;14.48;;;10.30;;
75971;SDS011;64651;47.540;19.088;2024-01-11T13:41:36;14.80;;;10.17;;
75971;SDS011;64651;47.540;19.088;2024-01-11T13:46:39;14.15;;;10.27;;
75971;SDS011;64651;47.540;19.088;2024-01-11T13:51:41;12.80;;;9.43;;
75971;SDS011;64651;47.540;19.088;2024-01-11T13:56:57;14.45;;;9.77;;
75971;SDS011;64651;47.540;19.088;2024-01-11T14:02:00;13.15;;;9.38;;
75971;SDS011;64651;47.540;19.088;2024-01-11T14:07:02;14.30;;;9.87;;
75971;SDS011;64651;47.540;19.088;2024-01-11T14:12:05;14.50;;;9.52;;
75971;SDS011;64651;47.540;19.088;2024-01-11T14:17:08;14.05;;;9.48;;
75971;SDS011;64651;47.540;19.088;2024-01-11T14:22:10;12.27;;;8.48;;
75971;SDS011;64651;47.540;19.088;2024-01-11T14:27:12;12.52;;;8.98;;
75971;SDS011;64651;47.540;19.088;2024-01-11T14:32:16;12.80;;;8.87;;
75971;SDS011;64651;47.540;19.088;2024-01-11T14:37:35;13.20;;;8.50;;
75971;SDS011;64651;47.540;19.088;2024-01-11T14:42:38;12.98;;;9.15;;
75971;SDS011;64651;47.540;19.088;2024-01-11T14:47:41;13.70;;;9.25;;
75971;SDS011;64651;47.540;19.088;2024-01-11T14:52:43;12.73;;;9.07;;
75971;SDS011;64651;47.540;19.088;2024-01-11T14:57:46;12.60;;;8.63;;
75971;SDS011;64651;47.540;19.088;2024-01-11T15:02:48;12.70;;;9.00;;
75971;SDS011;64651;47.540;19.088;2024-01-11T15:07:51;12.80;;;9.02;;
75971;SDS011;64651;47.540;19.088;2024-01-11T15:12:55;13.25;;;8.82;;
75971;SDS011;64651;47.540;19.088;2024-01-11T15:17:58;12.88;;;9.10;;
75971;SDS011;64651;47.540;19.088;2024-01-11T15:23:00;13.17;;;9.07;;
75971;SDS011;64651;47.540;19.088;2024-01-11T15:28:03;14.02;;;9.60;;
75971;SDS011;64651;47.540;19.088;2024-01-11T15:33:05;13.73;;;10.18;;
75971;SDS011;64651;47.540;19.088;2024-01-11T15:38:07;13.62;;;8.82;;
75971;SDS011;64651;47.540;19.088;2024-01-11T15:43:09;13.45;;;9.20;;
75971;SDS011;64651;47.540;19.088;2024-01-11T15:48:12;13.53;;;8.87;;
75971;SDS011;64651;47.540;19.088;2024-01-11T15:53:14;12.57;;;8.52;;
75971;SDS011;64651;47.540;19.088;2024-01-11T15:58:16;13.57;;;9.45;;
75971;SDS011;64651;47.540;19.088;2024-01-11T16:03:18;13.38;;;8.88;;
75971;SDS011;64651;47.540;19.088;2024-01-11T16:08:21;14.40;;;9.40;;
75971;SDS011;64651;47.540;19.088;2024-01-11T16:13:23;13.33;;;8.90;;
75971;SDS011;64651;47.540;19.088;2024-01-11T16:18:25;14.82;;;10.23;;
75971;SDS011;64651;47.540;19.088;2024-01-11T16:23:31;14.20;;;9.95;;
75971;SDS011;64651;47.540;19.088;2024-01-11T16:28:35;14.20;;;9.68;;
75971;SDS011;64651;47.540;19.088;2024-01-11T16:33:37;15.10;;;10.35;;
75971;SDS011;64651;47.540;19.088;2024-01-11T16:38:40;13.73;;;9.43;;
75971;SDS011;64651;47.540;19.088;2024-01-11T16:43:45;15.98;;;10.45;;
75971;SDS011;64651;47.540;19.088;2024-01-11T16:48:47;15.65;;;11.10;;
75971;SDS011;64651;47.540;19.088;2024-01-11T16:53:50;14.45;;;10.43;;
75971;SDS011;64651;47.540;19.088;2024-01-11T16:58:52;16.48;;;11.00;;
75971;SDS011;64651;47.540;19.088;2024-01-11T17:03:54;15.80;;;11.13;;
75971;SDS011;64651;47.540;19.088;2024-01-11T17:08:56;17.17;;;11.80;;
75971;SDS011;64651;47.540;19.088;2024-01-11T17:13:58;16.33;;;11.30;;
75971;SDS011;64651;47.540;19.088;2024-01-11T17:19:01;15.55;;;10.73;;
75971;SDS011;64651;47.540;19.088;2024-01-11T17:24:03;16.80;;;11.80;;
75971;SDS011;64651;47.540;19.088;2024-01-11T17:29:06;16.63;;;11.40;;
75971;SDS011;64651;47.540;19.088;2024-01-11T17:34:09;16.08;;;11.88;;
75971;SDS011;64651;47.540;19.088;2024-01-11T17:39:11;15.93;;;10.50;;
75971;SDS011;64651;47.540;19.088;2024-01-11T17:44:13;15.13;;;10.73;;
75971;SDS011;64651;47.540;19.088;2024-01-11T17:49:15;15.40;;;10.75;;
75971;SDS011;64651;47.540;19.088;2024-01-11T17:54:18;16.03;;;11.63;;
75971;SDS011;64651;47.540;19.088;2024-01-11T17:59:20;16.20;;;11.73;;
75971;SDS011;64651;47.540;19.088;2024-01-11T18:04:22;17.73;;;12.43;;
75971;SDS011;64651;47.540;19.088;2024-01-11T18:09:25;18.27;;;12.05;;
75971;SDS011;64651;47.540;19.088;2024-01-11T18:14:27;15.85;;;11.57;;
75971;SDS011;64651;47.540;19.088;2024-01-11T18:19:29;16.50;;;11.30;;
75971;SDS011;64651;47.540;19.088;2024-01-11T18:24:32;16.27;;;10.77;;
75971;SDS011;64651;47.540;19.088;2024-01-11T18:29:34;16.50;;;11.23;;
75971;SDS011;64651;47.540;19.088;2024-01-11T18:34:37;17.75;;;12.10;;
75971;SDS011;64651;47.540;19.088;2024-01-11T18:39:42;17.70;;;12.07;;
75971;SDS011;64651;47.540;19.088;2024-01-11T18:44:45;19.10;;;13.07;;
75971;SDS011;64651;47.540;19.088;2024-01-11T18:49:47;17.52;;;12.02;;
75971;SDS011;64651;47.540;19.088;2024-01-11T18:54:50;16.58;;;11.63;;
75971;SDS011;64651;47.540;19.088;2024-01-11T19:00:01;15.77;;;11.57;;
75971;SDS011;64651;47.540;19.088;2024-01-11T19:05:04;18.58;;;12.48;;
75971;SDS011;64651;47.540;19.088;2024-01-11T19:10:07;17.43;;;11.90;;
75971;SDS011;64651;47.540;19.088;2024-01-11T19:15:11;17.42;;;11.95;;
75971;SDS011;64651;47.540;19.088;2024-01-11T19:20:13;17.73;;;11.60;;
75971;SDS011;64651;47.540;19.088;2024-01-11T19:25:16;16.58;;;11.40;;
75971;SDS011;64651;47.540;19.088;2024-01-11T19:30:19;16.70;;;11.45;;
75971;SDS011;64651;47.540;19.088;2024-01-11T19:35:21;16.20;;;10.80;;
75971;SDS011;64651;47.540;19.088;2024-01-11T19:40:23;17.52;;;12.02;;
75971;SDS011;64651;47.540;19.088;2024-01-11T19:45:26;17.48;;;11.27;;
75971;SDS011;64651;47.540;19.088;2024-01-11T19:50:29;18.42;;;12.68;;
75971;SDS011;64651;47.540;19.088;2024-01-11T19:55:32;16.52;;;10.75;;
75971;SDS011;64651;47.540;19.088;2024-01-11T20:00:36;16.93;;;12.17;;
75971;SDS011;64651;47.540;19.088;2024-01-11T20:05:42;16.55;;;11.63;;
75971;SDS011;64651;47.540;19.088;2024-01-11T20:10:45;16.83;;;11.60;;
75971;SDS011;64651;47.540;19.088;2024-01-11T20:15:47;16.85;;;11.43;;
75971;SDS011;64651;47.540;19.088;2024-01-11T20:20:50;16.92;;;11.23;;
75971;SDS011;64651;47.540;19.088;2024-01-11T20:25:53;16.97;;;11.37;;
75971;SDS011;64651;47.540;19.088;2024-01-11T20:30:56;16.87;;;10.85;;
75971;SDS011;64651;47.540;19.088;2024-01-11T20:35:59;16.42;;;12.07;;
75971;SDS011;64651;47.540;19.088;2024-01-11T20:41:08;15.40;;;10.82;;
75971;SDS011;64651;47.540;19.088;2024-01-11T20:46:11;16.45;;;10.93;;
75971;SDS011;64651;47.540;19.088;2024-01-11T20:51:15;15.60;;;10.53;;
75971;SDS011;64651;47.540;19.088;2024-01-11T20:56:21;16.65;;;11.30;;
75971;SDS011;64651;47.540;19.088;2024-01-11T21:01:24;15.48;;;11.12;;
75971;SDS011;64651;47.540;19.088;2024-01-11T21:06:26;15.65;;;10.77;;
75971;SDS011;64651;47.540;19.088;2024-01-11T21:11:28;16.10;;;11.30;;
75971;SDS011;64651;47.540;19.088;2024-01-11T21:16:31;15.40;;;10.43;;
75971;SDS011;64651;47.540;19.088;2024-01-11T21:21:38;16.20;;;10.55;;
75971;SDS011;64651;47.540;19.088;2024-01-11T21:26:41;16.05;;;10.88;;
75971;SDS011;64651;47.540;19.088;2024-01-11T21:31:44;16.05;;;10.90;;
75971;SDS011;64651;47.540;19.088;2024-01-11T21:36:47;16.25;;;10.90;;
75971;SDS011;64651;47.540;19.088;2024-01-11T21:41:50;15.57;;;9.80;;
75971;SDS011;64651;47.540;19.088;2024-01-11T21:46:53;14.70;;;9.57;;
75971;SDS011;64651;47.540;19.088;2024-01-11T21:51:55;15.77;;;10.27;;
75971;SDS011;64651;47.540;19.088;2024-01-11T21:56:57;15.93;;;10.77;;
75971;SDS011;64651;47.540;19.088;2024-01-11T22:01:59;15.75;;;10.48;;
75971;SDS011;64651;47.540;19.088;2024-01-11T22:07:02;14.90;;;10.40;;
75971;SDS011;64651;47.540;19.088;2024-01-11T22:12:05;16.33;;;10.77;;
75971;SDS011;64651;47.540;19.088;2024-01-11T22:17:08;15.50;;;10.70;;
75971;SDS011;64651;47.540;19.088;2024-01-11T22:22:10;15.40;;;10.57;;
75971;SDS011;64651;47.540;19.088;2024-01-11T22:27:12;17.75;;;11.88;;
75971;SDS011;64651;47.540;19.088;2024-01-11T22:32:14;15.70;;;9.87;;
75971;SDS011;64651;47.540;19.088;2024-01-11T22:37:16;15.13;;;9.82;;
75971;SDS011;64651;47.540;19.088;2024-01-11T22:42:19;14.55;;;9.68;;
75971;SDS011;64651;47.540;19.088;2024-01-11T22:47:21;15.15;;;10.35;;
75971;SDS011;64651;47.540;19.088;2024-01-11T22:52:24;15.60;;;10.40;;
75971;SDS011;64651;47.540;19.088;2024-01-11T22:57:26;14.90;;;10.20;;
75971;SDS011;64651;47.540;19.088;2024-01-11T23:02:28;14.52;;;10.60;;
75971;SDS011;64651;47.540;19.088;2024-01-11T23:07:31;14.60;;;10.07;;
75971;SDS011;64651;47.540;19.088;2024-01-11T23:12:33;15.98;;;9.90;;
75971;SDS011;64651;47.540;19.088;2024-01-11T23:17:35;19.27;;;10.15;;
75971;SDS011;64651;47.540;19.088;2024-01-11T23:22:37;18.77;;;10.40;;
75971;SDS011;64651;47.540;19.088;2024-01-11T23:27:40;21.95;;;9.50;;
75971;SDS011;64651;47.540;19.088;2024-01-11T23:32:42;17.10;;;10.25;;
75971;SDS011;64651;47.540;19.088;2024-01-11T23:37:44;19.08;;;10.18;;
75971;SDS011;64651;47.540;19.088;2024-01-11T23:42:48;19.50;;;9.73;;
75971;SDS011;64651;47.540;19.088;2024-01-11T23:47:51;19.93;;;9.90;;
75971;SDS011;64651;47.540;19.088;2024-01-11T23:52:53;15.98;;;9.52;;
75971;SDS011;64651;47.540;19.088;2024-01-11T23:57:55;17.27;;;10.07;;
